Aérodrome :
LOGIN :

S'inscrire | Disclaimer

   EN    FR    IT 

 










Légende :    VFR   VFR Marginal   IFR   IFR Intensif   IFR Très Intensif
Visi : 
Plafond : 
>= 8 km
>= 3000ft
5 à 8 km
1000 à 3000 ft
1500m à 5 km
500 à 1000 ft
800 à 1500m
200 à 500 ft
< 800m
< 200 ft
Symboles :   Orages  Brouillard  Fortes neiges  Fortes précipitations  Vent > 20 kt
SIGMETs :   Divers  Orages  Givrage  Turbulence  Onde Orograph.  Cendres Volcan.







- Altitude de l'aérodrome : 26 ft
- Code IATA : GLA
- Voir les cartes d'approche


EGPF - Glasgow

DERNIER METAR :
  • 231450Z AUTO 22017KT 9999 FEW014 SCT022 BKN048 14/12 Q1009

METARs EXPIRÉS :
  • 231420Z AUTO 22015KT 9999 FEW014 SCT032 BKN049 14/12 Q1009
  • 231350Z AUTO 22015KT 9999 NCD 14/12 Q1009
  • 231320Z AUTO 22014KT 9999 BKN012 14/12 Q1009
  • 231250Z AUTO 22016KT 9999 BKN019 BKN024 OVC028 14/12 Q1009
  • 231220Z AUTO 22017KT 9999 -RA BKN020 15/13 Q1009

TAF AMD TAF EGPF
Valide du 23 à 12h jusqu'au 24 à 12h UTC


231159Z 2312/2412 23010KT 9999 SCT025
TEMPO 2312/2316 7000 SHRA BKN010
PROB40
TEMPO 2312/2318 24015G25KT
PROB40
TEMPO 2322/2324 17015G25KT 7000 SHRA
BECMG 2403/2406 15012KT
TEMPO 2404/2411 6000 RA -RADZ BKN012
TEMPO 2408/2412 22018G28KT
BECMG 2409/2411 26015KT
ATIS : +44 141 887 7449
Pas de NOTAMs connus pour ce terrain.



MET'MAP, la Météo Aéronautique d'un coup d'oeil ! - Copyright ORBIFLY Décembre 2007 - Disclaimer

ORBIFLY MET'MAP TEAM :

Programmation & Développement : Alexandra Zaïnal
Conception & Développement : Baudouin d'Aumeries
Co-Programmation & Développement : Marc-Olivier Méhu
Soutien technique & logistique : Manuel Goepfert

Contact : metmap@orbifly.com




SOURCES & CREDITS :

   NOAA